Time;durP1;ratioP1;P1;durP2;ratioP2;P2;SDS_P1;SDS_P2;PMS_P1;PMS_P2;Temp;Humidity;BMP_temperature;BMP_pressure;BME280_temperature;BME280_humidity;BME280_pressure;Samples;Min_cycle;Max_cycle;Signal;HPM_P1;HPM_P2
2022/07/04 00:01:28;;;;;;;3.15;1.67;;;16.20;99.90;;;;;;5097216;28;20338;-68
2022/07/04 00:03:53;;;;;;;2.35;1.73;;;16.10;99.90;;;;;;5097059;28;20177;-68
2022/07/04 00:06:19;;;;;;;2.55;1.58;;;16.00;99.90;;;;;;5097684;28;20543;-67
2022/07/04 00:08:45;;;;;;;2.05;1.70;;;15.90;99.90;;;;;;5095742;28;20217;-67
2022/07/04 00:11:10;;;;;;;2.38;1.63;;;15.90;99.90;;;;;;5096992;28;20709;-68
2022/07/04 00:13:36;;;;;;;2.67;1.60;;;15.80;99.90;;;;;;5095916;28;20184;-68
2022/07/04 00:16:02;;;;;;;2.95;1.70;;;15.80;99.90;;;;;;5095949;28;20253;-67
2022/07/04 00:18:28;;;;;;;2.80;1.85;;;15.70;99.90;;;;;;5096824;28;20266;-67
2022/07/04 00:20:54;;;;;;;1.80;1.70;;;15.60;99.90;;;;;;5096879;28;20208;-68
2022/07/04 00:23:19;;;;;;;2.88;1.92;;;15.70;99.90;;;;;;5097352;28;20530;-67
2022/07/04 00:25:46;;;;;;;2.08;1.85;;;15.70;99.90;;;;;;5096815;28;20649;-67
2022/07/04 00:28:12;;;;;;;3.15;1.83;;;15.60;99.90;;;;;;5096752;28;20185;-67
2022/07/04 00:30:38;;;;;;;2.75;1.88;;;15.60;99.90;;;;;;5095705;28;20215;-67
2022/07/04 00:33:04;;;;;;;3.35;1.90;;;15.40;99.90;;;;;;5097041;28;20213;-68
2022/07/04 00:35:29;;;;;;;5.03;2.25;;;15.40;99.90;;;;;;5097955;28;20185;-67
2022/07/04 00:37:55;;;;;;;6.07;2.10;;;15.30;99.90;;;;;;5097840;28;20196;-67
2022/07/04 00:40:21;;;;;;;2.78;1.90;;;15.20;99.90;;;;;;5095598;28;20212;-67
2022/07/04 00:42:46;;;;;;;2.45;2.00;;;15.20;99.90;;;;;;5096400;28;20177;-67
2022/07/04 00:45:12;;;;;;;2.13;1.92;;;15.10;99.90;;;;;;5097069;28;20165;-67
2022/07/04 00:47:38;;;;;;;2.45;1.92;;;15.10;99.90;;;;;;5096448;28;20185;-67
2022/07/04 00:50:04;;;;;;;3.42;1.73;;;15.10;99.90;;;;;;5109719;28;20203;-67
2022/07/04 00:52:30;;;;;;;3.35;2.00;;;15.20;99.90;;;;;;5117234;28;20172;-68
2022/07/04 00:54:56;;;;;;;2.30;2.10;;;15.20;99.90;;;;;;5116706;28;20259;-68
2022/07/04 00:57:22;;;;;;;3.28;2.17;;;15.10;99.90;;;;;;5116538;28;20271;-67
2022/07/04 00:59:48;;;;;;;1.95;1.85;;;15.20;99.90;;;;;;5116498;28;20201;-67
2022/07/04 01:02:13;;;;;;;2.80;2.00;;;15.20;99.90;;;;;;5116543;28;20221;-67
2022/07/04 01:04:39;;;;;;;2.47;2.15;;;15.20;99.90;;;;;;5116389;28;20177;-67
2022/07/04 01:07:06;;;;;;;2.40;2.20;;;15.10;99.90;;;;;;5115111;28;20200;-67
2022/07/04 01:09:32;;;;;;;3.17;2.00;;;15.10;99.90;;;;;;5115204;28;20680;-67
2022/07/04 01:11:58;;;;;;;3.33;2.20;;;15.00;99.90;;;;;;5116143;28;20168;-67
2022/07/04 01:14:23;;;;;;;2.45;2.08;;;14.90;99.90;;;;;;5116829;28;20309;-67
2022/07/04 01:16:49;;;;;;;4.75;2.40;;;14.90;99.90;;;;;;5117036;27;20589;-67
2022/07/04 01:19:15;;;;;;;2.40;2.20;;;14.90;99.90;;;;;;5108547;28;20542;-67
2022/07/04 01:21:40;;;;;;;3.60;2.17;;;14.90;99.90;;;;;;5095944;28;20673;-67
2022/07/04 01:24:06;;;;;;;3.65;2.30;;;14.90;99.90;;;;;;5095852;28;20177;-67
2022/07/04 01:26:32;;;;;;;2.45;2.05;;;14.90;99.90;;;;;;5095544;28;20660;-67
2022/07/04 01:28:58;;;;;;;4.00;2.13;;;14.80;99.90;;;;;;5095639;28;20207;-67
2022/07/04 01:31:23;;;;;;;4.20;2.08;;;14.80;99.90;;;;;;5095872;28;20173;-67
2022/07/04 01:33:49;;;;;;;3.78;2.30;;;14.90;99.90;;;;;;5095545;28;20186;-67
2022/07/04 01:36:15;;;;;;;3.25;2.38;;;14.90;99.90;;;;;;5095556;28;20169;-67
2022/07/04 01:38:41;;;;;;;3.70;2.08;;;14.80;99.90;;;;;;5096138;28;20200;-67
2022/07/04 01:41:06;;;;;;;3.85;2.40;;;14.70;99.90;;;;;;5095049;28;20271;-67
2022/07/04 01:43:32;;;;;;;2.95;2.15;;;14.60;99.90;;;;;;5095328;28;20177;-67
2022/07/04 01:45:58;;;;;;;2.45;2.25;;;14.60;99.90;;;;;;5095389;28;20161;-67
2022/07/04 01:48:23;;;;;;;2.20;2.00;;;14.60;99.90;;;;;;5093731;28;20204;-68
2022/07/04 01:50:49;;;;;;;3.38;1.98;;;14.60;99.90;;;;;;5095291;28;20523;-67
2022/07/04 01:53:15;;;;;;;4.63;2.25;;;14.60;99.90;;;;;;5093887;28;20185;-67
2022/07/04 01:55:41;;;;;;;3.35;2.33;;;14.60;99.90;;;;;;5095077;28;20226;-67
2022/07/04 01:58:06;;;;;;;3.03;2.08;;;14.50;99.90;;;;;;5095917;28;20188;-67
2022/07/04 02:03:17;;;;;;;3.55;2.20;;;14.30;99.90;;;;;;5095507;28;20210;-67
2022/07/04 02:05:43;;;;;;;2.95;2.20;;;14.30;99.90;;;;;;5095127;28;20222;-67
2022/07/04 02:08:10;;;;;;;3.05;2.20;;;14.20;99.90;;;;;;5094595;28;20242;-67
2022/07/04 02:10:35;;;;;;;2.60;2.40;;;14.10;99.90;;;;;;5093291;28;20215;-67
2022/07/04 02:13:01;;;;;;;3.20;2.20;;;14.00;99.90;;;;;;5095437;28;20181;-67
2022/07/04 02:15:45;;;;;;;3.25;2.20;;;14.00;99.90;;;;;;5094746;28;20227;-67
2022/07/04 02:18:11;;;;;;;4.38;2.42;;;13.90;99.90;;;;;;5093165;28;20627;-67
2022/07/04 02:20:37;;;;;;;7.03;2.40;;;13.90;99.90;;;;;;5093025;28;20200;-67
2022/07/04 02:23:05;;;;;;;2.67;2.15;;;13.90;99.90;;;;;;5094801;28;20180;-67
2022/07/04 02:25:31;;;;;;;4.45;2.50;;;13.90;99.90;;;;;;5094416;28;20173;-67
2022/07/04 02:27:57;;;;;;;2.85;2.22;;;13.90;99.90;;;;;;5094766;28;20187;-67
2022/07/04 02:30:24;;;;;;;3.95;2.40;;;13.80;99.90;;;;;;5094487;28;20540;-67
2022/07/04 02:32:49;;;;;;;5.25;2.30;;;13.90;99.90;;;;;;5094409;28;20218;-67
2022/07/04 02:35:15;;;;;;;2.47;2.28;;;13.90;99.90;;;;;;5093190;28;20177;-67
2022/07/04 02:37:41;;;;;;;3.55;2.33;;;13.90;99.90;;;;;;5094390;28;20203;-67
2022/07/04 02:40:08;;;;;;;4.25;2.42;;;14.00;99.90;;;;;;5092782;28;20201;-67
2022/07/04 02:42:35;;;;;;;3.03;2.50;;;14.10;99.90;;;;;;5094201;28;20642;-68
2022/07/04 02:45:01;;;;;;;3.00;2.40;;;14.00;99.90;;;;;;5094183;28;20176;-67
2022/07/04 02:47:27;;;;;;;4.68;2.42;;;14.00;99.90;;;;;;5092943;28;20193;-67
2022/07/04 02:49:54;;;;;;;3.25;2.47;;;13.80;99.90;;;;;;5094059;28;20192;-67
2022/07/04 02:52:20;;;;;;;3.50;2.60;;;13.70;99.90;;;;;;5094440;28;20255;-67
2022/07/04 02:54:46;;;;;;;3.03;2.58;;;13.70;99.90;;;;;;5094023;28;20252;-67
2022/07/04 02:57:13;;;;;;;6.32;2.80;;;13.70;99.90;;;;;;5093782;28;20237;-67
2022/07/04 02:59:39;;;;;;;3.50;2.30;;;13.70;99.90;;;;;;5093949;28;20173;-67
2022/07/04 03:02:04;;;;;;;3.53;2.53;;;13.60;99.90;;;;;;5094143;28;20262;-67
2022/07/04 03:04:30;;;;;;;4.18;2.47;;;13.60;99.90;;;;;;5094121;28;20201;-67
2022/07/04 03:06:56;;;;;;;4.35;2.83;;;13.60;99.90;;;;;;5094335;28;20200;-67
2022/07/04 03:09:22;;;;;;;3.55;2.83;;;13.60;99.90;;;;;;5093844;28;20177;-67
2022/07/04 03:11:48;;;;;;;3.50;2.50;;;13.70;99.90;;;;;;5093792;28;20173;-67
2022/07/04 03:14:13;;;;;;;3.20;2.80;;;13.70;99.90;;;;;;5094406;28;20567;-67
2022/07/04 03:16:39;;;;;;;4.18;2.80;;;13.60;99.90;;;;;;5092341;28;20177;-68
2022/07/04 03:19:05;;;;;;;4.45;2.92;;;13.60;99.90;;;;;;5092305;28;20292;-67
2022/07/04 03:21:31;;;;;;;3.10;2.80;;;13.60;99.90;;;;;;5092346;28;20211;-67
2022/07/04 03:24:00;;;;;;;4.35;2.45;;;13.70;99.90;;;;;;5093953;28;20173;-67
2022/07/04 03:26:30;;;;;;;3.22;2.45;;;13.70;99.90;;;;;;5093376;28;20169;-67
2022/07/04 03:28:57;;;;;;;3.00;2.58;;;13.80;99.90;;;;;;5092295;28;20231;-67
2022/07/04 03:31:23;;;;;;;4.70;2.67;;;13.80;99.90;;;;;;5092426;28;20698;-67
2022/07/04 03:33:49;;;;;;;3.08;2.22;;;13.80;99.90;;;;;;5097099;28;20256;-67
2022/07/04 03:36:15;;;;;;;3.25;2.80;;;13.90;99.90;;;;;;5097326;28;20200;-67
2022/07/04 03:38:41;;;;;;;3.97;2.75;;;13.80;99.90;;;;;;5097185;28;20234;-67
2022/07/04 03:41:07;;;;;;;3.08;2.63;;;13.80;99.90;;;;;;5097189;28;20616;-67
2022/07/04 03:43:32;;;;;;;3.17;2.70;;;13.90;99.90;;;;;;5095991;28;20267;-67
2022/07/04 03:45:58;;;;;;;3.30;2.60;;;13.90;99.90;;;;;;5097357;28;20201;-67
2022/07/04 03:48:24;;;;;;;6.03;2.45;;;13.90;99.90;;;;;;5098104;28;20197;-67
2022/07/04 03:50:50;;;;;;;3.78;2.45;;;13.90;99.90;;;;;;5117670;28;20631;-68
2022/07/04 03:53:16;;;;;;;3.00;2.60;;;14.00;99.90;;;;;;5117849;28;20556;-68
2022/07/04 03:55:42;;;;;;;3.72;2.80;;;14.00;99.90;;;;;;5117201;28;20173;-70
2022/07/04 03:58:08;;;;;;;3.83;2.78;;;14.00;99.90;;;;;;5116116;28;20677;-70
2022/07/04 04:00:35;;;;;;;4.60;2.70;;;13.90;99.90;;;;;;5116048;28;20206;-70
2022/07/04 04:03:01;;;;;;;3.47;2.95;;;13.90;99.90;;;;;;5117737;28;20189;-70
2022/07/04 04:05:27;;;;;;;4.82;3.00;;;13.90;99.90;;;;;;5116201;28;20208;-70
2022/07/04 04:07:57;;;;;;;5.65;3.45;;;13.80;99.90;;;;;;5115966;28;20192;-70
2022/07/04 04:10:25;;;;;;;8.45;3.58;;;13.80;99.90;;;;;;5117316;28;20152;-70
2022/07/04 04:12:50;;;;;;;8.45;3.60;;;13.70;99.90;;;;;;5117387;28;20656;-70
2022/07/04 04:15:16;;;;;;;7.38;3.90;;;13.80;99.90;;;;;;5115769;28;20176;-69
2022/07/04 04:17:42;;;;;;;6.90;4.00;;;13.80;99.90;;;;;;5117029;28;20215;-70
2022/07/04 04:20:08;;;;;;;8.90;4.32;;;13.80;99.90;;;;;;5102238;28;20232;-70
2022/07/04 04:22:34;;;;;;;10.68;4.00;;;13.70;99.90;;;;;;5096482;28;20187;-70
2022/07/04 04:25:00;;;;;;;5.63;3.60;;;13.70;99.90;;;;;;5096580;28;20529;-70
2022/07/04 04:27:26;;;;;;;5.43;3.67;;;13.70;99.90;;;;;;5095031;28;20200;-70
2022/07/04 04:29:52;;;;;;;5.60;3.50;;;13.70;99.90;;;;;;5096400;28;20177;-70
2022/07/04 04:32:18;;;;;;;5.93;3.33;;;13.90;99.90;;;;;;5096391;28;20177;-70
2022/07/04 04:34:43;;;;;;;8.00;4.15;;;13.90;99.90;;;;;;5096347;28;20223;-70
2022/07/04 04:37:09;;;;;;;8.00;4.88;;;14.00;99.90;;;;;;5096903;28;20208;-70
2022/07/04 04:39:35;;;;;;;7.68;3.90;;;14.10;99.90;;;;;;5097036;28;20195;-71
2022/07/04 04:42:01;;;;;;;7.47;3.90;;;14.10;99.90;;;;;;5095059;28;20234;-70
2022/07/04 04:44:26;;;;;;;8.77;3.63;;;14.10;99.90;;;;;;5096247;28;20174;-67
2022/07/04 04:46:52;;;;;;;8.52;4.00;;;13.90;99.90;;;;;;5094900;28;20268;-68
2022/07/04 04:49:18;;;;;;;4.68;3.30;;;13.90;99.90;;;;;;5096096;28;20599;-67
2022/07/04 04:51:44;;;;;;;5.90;3.80;;;14.00;99.90;;;;;;5096661;28;20177;-68
2022/07/04 04:54:10;;;;;;;4.00;3.20;;;14.20;99.90;;;;;;5096081;28;20181;-68
2022/07/04 04:56:36;;;;;;;4.65;3.33;;;14.30;99.90;;;;;;5095843;28;20227;-68
2022/07/04 04:59:01;;;;;;;5.47;3.47;;;14.40;99.90;;;;;;5094480;28;20205;-67
2022/07/04 05:01:27;;;;;;;5.63;4.03;;;14.40;99.90;;;;;;5096018;28;20285;-68
2022/07/04 05:03:53;;;;;;;7.82;3.60;;;14.30;99.90;;;;;;5095881;28;20174;-68
2022/07/04 05:06:19;;;;;;;5.40;3.47;;;14.30;99.90;;;;;;5095826;28;20222;-68
2022/07/04 05:08:45;;;;;;;7.18;3.95;;;14.40;99.90;;;;;;5095913;28;20246;-68
2022/07/04 05:11:11;;;;;;;6.50;3.95;;;14.40;99.90;;;;;;5095819;28;20200;-68
2022/07/04 05:13:37;;;;;;;7.80;4.22;;;14.40;99.90;;;;;;5095923;28;20205;-68
2022/07/04 05:16:03;;;;;;;10.60;4.47;;;14.40;99.90;;;;;;5094495;28;20314;-67
2022/07/04 05:18:29;;;;;;;10.73;5.00;;;14.50;99.90;;;;;;5094238;28;20303;-68
2022/07/04 05:20:54;;;;;;;6.85;4.40;;;14.60;99.90;;;;;;5095711;28;20292;-68
2022/07/04 05:23:20;;;;;;;8.90;4.32;;;14.60;99.90;;;;;;5094423;28;20177;-68
2022/07/04 05:25:47;;;;;;;7.60;4.07;;;14.60;99.90;;;;;;5095988;28;20165;-68
2022/07/04 05:28:13;;;;;;;14.07;4.88;;;14.60;99.90;;;;;;5095984;28;20185;-68
2022/07/04 05:30:38;;;;;;;6.38;4.40;;;14.60;99.90;;;;;;5096684;28;20660;-68
2022/07/04 05:33:04;;;;;;;10.27;5.05;;;14.70;99.90;;;;;;5096513;28;20169;-68
2022/07/04 05:35:31;;;;;;;8.00;4.82;;;14.70;99.90;;;;;;5094896;28;20669;-67
2022/07/04 05:37:57;;;;;;;7.95;4.93;;;14.70;99.90;;;;;;5095821;28;20209;-67
2022/07/04 05:40:23;;;;;;;9.60;4.90;;;14.80;99.90;;;;;;5095490;28;20204;-68
2022/07/04 05:42:49;;;;;;;10.15;4.50;;;14.90;99.90;;;;;;5095171;28;20169;-68
2022/07/04 05:45:15;;;;;;;10.70;5.10;;;15.10;99.90;;;;;;5095644;28;20618;-68
2022/07/04 05:47:41;;;;;;;12.05;5.18;;;15.20;99.90;;;;;;5093953;28;20228;-68
2022/07/04 05:50:07;;;;;;;11.45;4.90;;;15.30;99.90;;;;;;5095017;28;20181;-68
2022/07/04 05:52:33;;;;;;;11.27;4.68;;;15.40;99.90;;;;;;5095154;28;20244;-68
2022/07/04 05:54:59;;;;;;;6.38;4.22;;;15.40;99.90;;;;;;5093187;28;20177;-68
2022/07/04 05:57:25;;;;;;;9.38;5.07;;;15.60;99.90;;;;;;5094648;28;20675;-68
2022/07/04 05:59:50;;;;;;;8.15;4.82;;;15.60;99.90;;;;;;5095551;28;20177;-68
2022/07/04 06:02:16;;;;;;;9.30;4.82;;;15.70;99.90;;;;;;5095022;28;20176;-68
2022/07/04 06:04:43;;;;;;;9.05;4.57;;;15.80;99.90;;;;;;5095127;28;20180;-68
2022/07/04 06:07:09;;;;;;;9.13;4.43;;;15.80;99.90;;;;;;5093390;28;20193;-68
2022/07/04 06:09:35;;;;;;;10.95;4.57;;;15.90;99.90;;;;;;5094720;28;20173;-68
2022/07/04 06:12:02;;;;;;;9.15;4.95;;;16.00;99.90;;;;;;5093293;28;20177;-68
2022/07/04 06:14:28;;;;;;;7.72;4.97;;;16.10;99.90;;;;;;5094457;28;20177;-68
2022/07/04 06:16:54;;;;;;;8.13;4.53;;;16.20;99.90;;;;;;5094392;28;20260;-68
2022/07/04 06:19:20;;;;;;;8.25;5.10;;;16.30;99.90;;;;;;5094568;28;20615;-68
2022/07/04 06:21:45;;;;;;;9.48;4.63;;;16.40;99.90;;;;;;5094662;28;20201;-68
2022/07/04 06:24:11;;;;;;;7.50;5.07;;;16.60;99.90;;;;;;5094377;28;20215;-68
2022/07/04 06:26:37;;;;;;;8.90;4.90;;;16.60;99.90;;;;;;5094246;28;20153;-68
2022/07/04 06:29:03;;;;;;;5.95;4.20;;;16.70;99.90;;;;;;5094880;28;20180;-68
2022/07/04 06:31:29;;;;;;;10.60;4.32;;;16.80;99.90;;;;;;5094655;28;20180;-68
2022/07/04 06:36:38;;;;;;;7.65;4.38;;;16.90;99.90;;;;;;5094357;28;20165;-68
2022/07/04 06:39:04;;;;;;;7.50;4.00;;;17.00;99.90;;;;;;5094193;28;20340;-68
2022/07/04 06:41:30;;;;;;;4.85;3.78;;;17.00;99.90;;;;;;5092807;28;20209;-68
2022/07/04 06:43:58;;;;;;;6.57;3.63;;;17.10;99.90;;;;;;5095095;28;20160;-68
2022/07/04 06:46:25;;;;;;;8.43;3.63;;;17.20;99.90;;;;;;5094129;28;20176;-68
2022/07/04 06:48:56;;;;;;;8.25;3.95;;;17.30;99.90;;;;;;5096930;28;20204;-68
2022/07/04 06:51:24;;;;;;;10.63;4.07;;;17.30;99.90;;;;;;5113204;28;20255;-69
2022/07/04 06:53:50;;;;;;;7.28;4.00;;;17.40;99.90;;;;;;5113333;28;20184;-69
2022/07/04 06:56:16;;;;;;;7.78;3.50;;;17.40;99.90;;;;;;5114726;28;20223;-69
2022/07/04 06:58:42;;;;;;;8.88;4.30;;;17.40;99.90;;;;;;5116623;28;20212;-69
2022/07/04 07:01:08;;;;;;;6.43;3.25;;;17.40;99.90;;;;;;5118076;28;20196;-68
2022/07/04 07:03:34;;;;;;;9.15;3.17;;;17.50;99.90;;;;;;5116702;28;20172;-68
2022/07/04 07:06:02;;;;;;;5.13;2.83;;;17.50;99.90;;;;;;5115992;28;20293;-68
2022/07/04 07:08:30;;;;;;;6.75;3.50;;;17.60;99.90;;;;;;5117906;28;20191;-68
2022/07/04 07:10:57;;;;;;;5.45;2.70;;;17.70;99.90;;;;;;5113976;28;20646;-68
2022/07/04 07:13:24;;;;;;;3.38;2.70;;;17.70;99.90;;;;;;5115961;28;20178;-67
2022/07/04 07:15:50;;;;;;;4.78;2.60;;;17.70;99.90;;;;;;5118612;28;20173;-67
2022/07/04 07:18:16;;;;;;;8.93;2.95;;;17.80;99.90;;;;;;5114623;28;20208;-68
2022/07/04 07:20:42;;;;;;;6.18;2.88;;;17.90;99.90;;;;;;5094537;28;20203;-68
2022/07/04 07:23:08;;;;;;;5.00;2.47;;;17.90;99.90;;;;;;5093804;28;20215;-68
2022/07/04 07:25:33;;;;;;;6.50;2.60;;;17.90;99.90;;;;;;5093675;28;20255;-68
2022/07/04 07:27:59;;;;;;;3.80;2.33;;;17.90;99.90;;;;;;5093979;28;20220;-69
2022/07/04 07:30:25;;;;;;;4.65;2.35;;;18.00;99.90;;;;;;5093772;28;20203;-68
2022/07/04 07:32:51;;;;;;;3.05;2.17;;;18.00;99.90;;;;;;5093725;28;20173;-69
2022/07/04 07:35:17;;;;;;;3.72;2.20;;;18.20;99.90;;;;;;5093907;28;20214;-68
2022/07/04 07:37:43;;;;;;;4.20;1.90;;;18.30;99.90;;;;;;5093304;28;20197;-68
2022/07/04 07:40:10;;;;;;;3.00;2.13;;;18.40;99.90;;;;;;5092158;28;20211;-68
2022/07/04 07:42:35;;;;;;;3.10;2.05;;;18.50;99.90;;;;;;5091839;28;20188;-68
2022/07/04 07:45:01;;;;;;;3.80;2.10;;;18.50;99.90;;;;;;5093549;28;20173;-68
2022/07/04 07:47:28;;;;;;;5.32;2.30;;;18.50;99.90;;;;;;5092452;28;20219;-68
2022/07/04 07:49:53;;;;;;;5.85;2.47;;;18.60;99.90;;;;;;5106697;28;20652;-68
2022/07/04 07:52:19;;;;;;;2.40;1.83;;;18.70;99.90;;;;;;5112505;28;20200;-68
2022/07/04 07:54:45;;;;;;;3.17;2.22;;;18.70;99.90;;;;;;5114140;28;20173;-69
2022/07/04 07:57:11;;;;;;;4.28;2.10;;;18.80;99.90;;;;;;5113425;28;20200;-70
2022/07/04 07:59:36;;;;;;;5.05;2.13;;;18.70;99.90;;;;;;5113927;28;20169;-69
2022/07/04 08:02:03;;;;;;;3.95;2.30;;;18.80;99.90;;;;;;5113816;28;20205;-69
2022/07/04 08:04:34;;;;;;;5.40;2.17;;;19.00;99.90;;;;;;5112282;28;20179;-69
2022/07/04 08:07:11;;;;;;;4.47;2.10;;;19.10;99.90;;;;;;5113937;28;20218;-69
2022/07/04 08:09:38;;;;;;;6.00;2.10;;;19.10;99.90;;;;;;5113819;28;20148;-69
2022/07/04 08:12:06;;;;;;;6.00;2.33;;;19.00;99.90;;;;;;5113298;28;20164;-69
2022/07/04 08:14:33;;;;;;;5.75;2.05;;;19.10;99.90;;;;;;5113510;28;20240;-69
2022/07/04 08:17:01;;;;;;;2.80;1.95;;;19.10;99.90;;;;;;5112257;28;20203;-69
2022/07/04 08:19:27;;;;;;;5.55;2.05;;;19.20;99.90;;;;;;5106919;28;20261;-69
2022/07/04 08:21:54;;;;;;;3.90;1.90;;;19.20;99.90;;;;;;5095698;28;20201;-68
2022/07/04 08:24:20;;;;;;;5.85;1.83;;;19.30;99.90;;;;;;5096719;28;20177;-69
2022/07/04 08:26:47;;;;;;;4.97;1.90;;;19.30;99.90;;;;;;5095155;28;20185;-69
2022/07/04 08:29:19;;;;;;;5.45;1.80;;;19.40;99.90;;;;;;5095549;28;20197;-69
2022/07/04 08:31:45;;;;;;;3.08;2.00;;;19.40;99.90;;;;;;5096745;28;20169;-68
2022/07/04 08:34:11;;;;;;;3.00;1.90;;;19.50;99.90;;;;;;5097101;28;20572;-68
2022/07/04 08:36:37;;;;;;;1.92;1.30;;;19.50;99.90;;;;;;5097118;28;20222;-70
2022/07/04 08:39:03;;;;;;;2.03;1.48;;;19.60;99.90;;;;;;5094864;28;20204;-69
2022/07/04 08:41:37;;;;;;;2.60;1.70;;;19.70;99.90;;;;;;5094777;28;20583;-69
2022/07/04 08:44:04;;;;;;;3.72;1.70;;;19.90;99.90;;;;;;5096934;28;20214;-69
2022/07/04 08:46:30;;;;;;;4.03;1.60;;;19.90;99.90;;;;;;5096731;28;20161;-69
2022/07/04 08:49:00;;;;;;;3.40;1.85;;;19.90;99.90;;;;;;5094722;28;20311;-69
2022/07/04 08:51:41;;;;;;;3.92;1.65;;;20.00;99.90;;;;;;5096708;28;20153;-69
2022/07/04 08:59:45;;;;;;;1.83;1.70;;;20.30;99.90;;;;;;5096326;28;20188;-69
2022/07/04 09:02:13;;;;;;;3.30;1.77;;;20.40;99.90;;;;;;5094654;28;20172;-69
2022/07/04 09:04:40;;;;;;;2.28;1.85;;;20.50;99.90;;;;;;5096012;28;20187;-69
2022/07/04 09:07:06;;;;;;;4.97;1.88;;;20.60;99.90;;;;;;5095662;28;20215;-69
2022/07/04 09:09:33;;;;;;;2.03;1.50;;;20.60;99.90;;;;;;5095807;28;20176;-69
2022/07/04 09:11:59;;;;;;;2.42;1.48;;;20.70;99.90;;;;;;5095693;28;20184;-69
2022/07/04 09:14:25;;;;;;;4.38;1.60;;;20.90;99.90;;;;;;5095476;28;20180;-69
2022/07/04 09:16:53;;;;;;;3.58;1.83;;;20.90;99.90;;;;;;5094149;28;20234;-70
2022/07/04 09:19:21;;;;;;;2.13;1.80;;;20.90;99.90;;;;;;5095439;28;20181;-69
2022/07/04 09:21:48;;;;;;;2.88;1.50;;;21.10;99.90;;;;;;5095308;28;20204;-69
2022/07/04 09:24:14;;;;;;;1.42;1.33;;;21.30;99.90;;;;;;5095349;28;20183;-69
2022/07/04 09:26:44;;;;;;;3.92;1.60;;;21.50;99.90;;;;;;5095159;28;20165;-70
2022/07/04 09:29:10;;;;;;;5.30;1.70;;;21.60;99.90;;;;;;5093680;28;20177;-69
2022/07/04 09:31:38;;;;;;;2.55;1.40;;;21.60;99.90;;;;;;5093602;28;20669;-69
2022/07/04 09:34:05;;;;;;;2.65;1.60;;;21.90;99.90;;;;;;5093952;28;20185;-69
2022/07/04 09:36:33;;;;;;;3.00;1.58;;;22.20;99.90;;;;;;5095478;28;20196;-69
2022/07/04 09:39:19;;;;;;;4.32;1.90;;;22.30;99.90;;;;;;5095065;28;20201;-69
2022/07/04 09:41:54;;;;;;;1.63;1.10;;;22.40;99.90;;;;;;5095186;28;20197;-70
2022/07/04 09:44:21;;;;;;;3.05;1.70;;;22.30;99.90;;;;;;5095305;28;20161;-69
2022/07/04 09:46:47;;;;;;;3.60;1.63;;;22.40;99.90;;;;;;5093693;28;20207;-70
2022/07/04 09:49:13;;;;;;;3.50;1.90;;;22.50;99.90;;;;;;5093891;28;20590;-69
2022/07/04 09:51:40;;;;;;;3.10;1.50;;;22.40;99.90;;;;;;5093562;28;20177;-69
2022/07/04 09:54:27;;;;;;;3.47;1.70;;;22.40;99.90;;;;;;5094795;28;20181;-69
2022/07/04 09:56:56;;;;;;;3.03;1.63;;;22.40;99.90;;;;;;5094541;28;20177;-69
2022/07/04 09:59:24;;;;;;;2.22;1.50;;;22.50;99.90;;;;;;5094521;28;20250;-69
2022/07/04 10:01:51;;;;;;;4.13;1.65;;;22.50;99.90;;;;;;5095464;28;20203;-69
2022/07/04 10:04:17;;;;;;;2.13;1.50;;;22.80;99.90;;;;;;5094644;28;20175;-69
2022/07/04 10:06:45;;;;;;;1.42;1.33;;;22.90;99.90;;;;;;5093413;28;20633;-69
2022/07/04 10:09:16;;;;;;;1.88;1.40;;;23.00;99.90;;;;;;5094755;28;20549;-69
2022/07/04 10:11:44;;;;;;;2.65;1.50;;;23.20;99.90;;;;;;5093181;28;20259;-69
2022/07/04 10:14:12;;;;;;;2.55;1.52;;;23.00;99.90;;;;;;5094591;28;20170;-69
2022/07/04 10:16:39;;;;;;;1.20;1.10;;;23.00;99.90;;;;;;5094858;28;20230;-69
2022/07/04 10:19:06;;;;;;;5.10;1.20;;;23.00;99.90;;;;;;5093209;28;20411;-69
2022/07/04 10:21:32;;;;;;;3.35;1.27;;;22.90;99.90;;;;;;5092987;28;20211;-69
2022/07/04 10:23:59;;;;;;;1.77;1.20;;;22.90;99.90;;;;;;5094749;28;20169;-69
2022/07/04 10:26:28;;;;;;;2.50;1.27;;;22.90;99.90;;;;;;5093090;28;20664;-69
2022/07/04 10:28:54;;;;;;;1.85;1.33;;;22.60;99.90;;;;;;5094277;28;20195;-69
2022/07/04 10:31:23;;;;;;;2.78;1.42;;;22.20;99.90;;;;;;5093296;28;20618;-69
2022/07/04 10:33:49;;;;;;;3.03;1.30;;;21.70;99.90;;;;;;5093207;28;20264;-69
2022/07/04 10:36:21;;;;;;;2.30;1.30;;;21.80;99.90;;;;;;5095008;28;20182;-69
2022/07/04 10:38:58;;;;;;;1.42;1.30;;;22.20;99.90;;;;;;5093203;28;20204;-69
2022/07/04 10:41:25;;;;;;;5.50;1.45;;;22.50;99.90;;;;;;5092844;28;20742;-69
2022/07/04 10:44:01;;;;;;;1.85;1.52;;;22.60;99.90;;;;;;5094116;28;20679;-68
2022/07/04 10:46:31;;;;;;;2.92;1.13;;;22.60;99.90;;;;;;5093011;28;20165;-67
2022/07/04 10:49:06;;;;;;;4.13;1.30;;;22.60;99.90;;;;;;5094698;28;20651;-69
2022/07/04 10:51:35;;;;;;;5.15;1.40;;;22.40;99.90;;;;;;5094885;28;20193;-68
2022/07/04 10:54:06;;;;;;;3.25;1.60;;;22.30;99.90;;;;;;5094214;28;20173;-68
2022/07/04 10:56:51;;;;;;;1.48;1.30;;;22.40;99.90;;;;;;5094621;28;20264;-68
2022/07/04 10:59:21;;;;;;;1.38;1.02;;;22.70;99.90;;;;;;5094448;28;20173;-68
2022/07/04 11:02:07;;;;;;;1.42;1.33;;;23.20;99.90;;;;;;5094229;28;20188;-69
2022/07/04 11:04:51;;;;;;;2.95;1.50;;;23.40;99.90;;;;;;5089905;28;20263;-68
2022/07/04 11:07:37;;;;;;;1.27;1.17;;;23.50;99.90;;;;;;5093821;28;20189;-69
2022/07/04 11:10:29;;;;;;;3.63;1.60;;;23.70;99.90;;;;;;5090198;28;20664;-68
2022/07/04 11:12:55;;;;;;;3.03;1.20;;;23.60;99.90;;;;;;5093794;28;20203;-68
2022/07/04 11:15:33;;;;;;;1.90;1.48;;;23.90;99.90;;;;;;5093954;28;20652;-69
2022/07/04 11:18:19;;;;;;;2.40;1.50;;;23.80;99.90;;;;;;5093734;28;20262;-69
2022/07/04 11:20:49;;;;;;;1.60;1.30;;;23.60;99.90;;;;;;5097240;28;20192;-69
2022/07/04 11:23:17;;;;;;;2.58;1.30;;;23.50;99.90;;;;;;5097170;28;20181;-69
2022/07/04 11:25:50;;;;;;;4.65;1.92;;;23.50;99.90;;;;;;5094373;28;20260;-69
2022/07/04 11:28:19;;;;;;;5.68;2.42;;;23.30;99.90;;;;;;5095515;28;20197;-69
2022/07/04 11:30:52;;;;;;;3.45;1.60;;;23.10;99.90;;;;;;5095581;28;20192;-69
2022/07/04 11:33:21;;;;;;;8.65;3.65;;;23.40;99.90;;;;;;5094999;28;20173;-69
2022/07/04 11:36:02;;;;;;;1.95;1.20;;;23.80;99.90;;;;;;5094015;28;20184;-69
2022/07/04 11:39:03;;;;;;;1.65;1.30;;;24.10;99.90;;;;;;5093614;28;20200;-69
2022/07/04 11:47:04;;;;;;;3.10;1.10;;;25.60;99.90;;;;;;5093893;28;20558;-69
2022/07/04 11:49:30;;;;;;;3.22;1.23;;;25.60;99.90;;;;;;5093862;28;20209;-69
2022/07/04 11:51:56;;;;;;;3.47;1.33;;;25.70;99.90;;;;;;5091987;28;20216;-69
2022/07/04 11:54:22;;;;;;;3.22;1.10;;;25.80;99.90;;;;;;5096477;28;20172;-69
2022/07/04 11:56:48;;;;;;;4.68;1.50;;;25.60;99.90;;;;;;5097121;28;20176;-70
2022/07/04 11:59:15;;;;;;;3.03;1.40;;;25.20;99.90;;;;;;5097644;28;20169;-69
2022/07/04 12:01:42;;;;;;;3.25;1.27;;;25.50;99.90;;;;;;5097246;28;20200;-69
2022/07/04 12:04:19;;;;;;;1.55;1.10;;;25.60;99.90;;;;;;5095898;28;20175;-69
2022/07/04 12:06:47;;;;;;;3.63;1.30;;;25.70;99.90;;;;;;5097937;28;20218;-69
2022/07/04 12:09:16;;;;;;;2.08;1.60;;;25.50;99.90;;;;;;5097047;28;20177;-69
2022/07/04 12:11:59;;;;;;;2.13;1.30;;;24.80;99.90;;;;;;5095727;28;20177;-69
2022/07/04 12:14:26;;;;;;;2.00;1.33;;;24.70;99.90;;;;;;5095785;28;20250;-69
2022/07/04 12:17:15;;;;;;;3.03;1.20;;;24.80;99.90;;;;;;5097256;28;20157;-69
2022/07/04 12:20:17;;;;;;;4.45;1.48;;;24.60;99.90;;;;;;5096924;28;20264;-69
2022/07/04 12:22:57;;;;;;;1.67;1.40;;;24.20;99.90;;;;;;5075155;28;20242;-68
2022/07/04 12:25:31;;;;;;;1.40;1.15;;;23.80;99.90;;;;;;5095529;28;20165;-69
2022/07/04 12:28:00;;;;;;;1.15;1.05;;;23.90;99.90;;;;;;5096551;28;20180;-69
2022/07/04 12:30:27;;;;;;;1.98;1.25;;;24.30;99.90;;;;;;5097082;28;20226;-69
2022/07/04 12:33:04;;;;;;;1.92;1.27;;;25.10;99.90;;;;;;5096981;28;20196;-69
2022/07/04 12:35:32;;;;;;;2.30;1.50;;;25.80;99.90;;;;;;5095559;28;20169;-69
2022/07/04 12:38:02;;;;;;;2.80;1.17;;;26.30;99.90;;;;;;5095611;28;20561;-69
2022/07/04 12:40:28;;;;;;;1.88;1.33;;;26.40;99.90;;;;;;5096486;28;20189;-69
2022/07/04 12:42:57;;;;;;;3.35;1.50;;;26.40;99.90;;;;;;5096367;28;20177;-69
2022/07/04 12:45:24;;;;;;;1.33;1.20;;;25.90;99.90;;;;;;5095164;28;20184;-69
2022/07/04 12:47:49;;;;;;;3.70;1.40;;;26.00;99.90;;;;;;5096421;28;20712;-69
2022/07/04 12:50:24;;;;;;;1.55;1.10;;;26.30;99.90;;;;;;5094944;28;20218;-69
2022/07/04 12:52:51;;;;;;;4.10;1.42;;;26.40;99.90;;;;;;5095072;28;20225;-69
2022/07/04 12:55:17;;;;;;;5.05;1.27;;;26.90;99.90;;;;;;5097006;28;20230;-71
2022/07/04 12:57:42;;;;;;;3.13;1.42;;;27.30;99.90;;;;;;5095401;28;20541;-69
2022/07/04 13:00:12;;;;;;;2.45;1.45;;;26.90;99.90;;;;;;5097082;28;20181;-69
2022/07/04 13:02:41;;;;;;;1.50;1.40;;;26.30;99.90;;;;;;5095348;28;20517;-69
2022/07/04 13:05:07;;;;;;;2.55;1.65;;;25.80;99.90;;;;;;5095918;28;20173;-69